createdAt,value
2023-01-19T00:00:51.251Z,29.95
2023-01-19T00:03:18.445Z,28.13
2023-01-19T00:05:45.667Z,26.83
2023-01-19T00:08:15.549Z,26.75
2023-01-19T00:10:44.031Z,25.52
2023-01-19T00:13:10.773Z,25.33
2023-01-19T00:15:37.465Z,27.60
2023-01-19T00:18:04.214Z,25.48
2023-01-19T00:20:35.578Z,26.40
2023-01-19T00:23:04.634Z,22.55
2023-01-19T00:25:31.349Z,21.35
2023-01-19T00:28:00.536Z,21.65
2023-01-19T00:30:28.218Z,22.45
2023-01-19T00:32:54.805Z,25.50
2023-01-19T00:35:21.431Z,25.58
2023-01-19T00:37:48.100Z,21.70
2023-01-19T00:40:14.849Z,24.17
2023-01-19T00:42:44.170Z,21.10
2023-01-19T00:45:13.521Z,21.00
2023-01-19T00:47:40.322Z,20.38
2023-01-19T00:50:11.752Z,21.80
2023-01-19T00:52:40.287Z,22.70
2023-01-19T00:55:15.939Z,22.45
2023-01-19T00:57:42.773Z,23.38
2023-01-19T01:00:13.638Z,21.88
2023-01-19T01:02:41.778Z,24.02
2023-01-19T01:05:08.973Z,20.08
2023-01-19T01:07:41.643Z,22.40
2023-01-19T01:10:10.515Z,21.25
2023-01-19T01:12:38.132Z,22.02
2023-01-19T01:15:06.822Z,24.55
2023-01-19T01:17:33.440Z,23.40
2023-01-19T01:20:00.196Z,23.20
2023-01-19T01:22:27.300Z,19.80
2023-01-19T01:24:54.012Z,26.52
2023-01-19T01:27:20.783Z,21.95
2023-01-19T01:29:48.189Z,23.98
2023-01-19T01:32:15.745Z,22.90
2023-01-19T01:34:42.808Z,23.35
2023-01-19T01:37:09.788Z,22.25
2023-01-19T01:39:36.849Z,22.33
2023-01-19T01:42:15.437Z,20.58
2023-01-19T01:44:54.537Z,21.27
2023-01-19T01:47:36.201Z,20.05
2023-01-19T01:53:06.089Z,18.10
2023-01-19T01:55:39.747Z,23.83
2023-01-19T01:58:07.958Z,18.38
2023-01-19T02:00:54.665Z,21.38
2023-01-19T02:03:24.044Z,22.55
2023-01-19T02:05:51.717Z,21.38
2023-01-19T02:09:14.414Z,23.48
2023-01-19T02:12:00.454Z,24.50
2023-01-19T02:14:27.421Z,20.58
2023-01-19T02:16:54.043Z,21.23
2023-01-19T02:19:34.211Z,23.52
2023-01-19T02:22:11.604Z,25.48
2023-01-19T02:24:38.367Z,28.42
2023-01-19T02:27:05.959Z,22.80
2023-01-19T02:29:33.510Z,25.98
2023-01-19T02:32:01.990Z,22.45
2023-01-19T02:34:29.557Z,23.23
2023-01-19T02:37:07.290Z,23.38
2023-01-19T02:39:50.616Z,29.13
2023-01-19T02:42:22.242Z,26.60
2023-01-19T02:44:51.546Z,26.52
2023-01-19T02:47:18.319Z,25.02
2023-01-19T02:49:45.114Z,24.20
2023-01-19T02:52:17.603Z,23.20
2023-01-19T02:55:06.255Z,24.52
2023-01-19T02:58:09.871Z,25.02
2023-01-19T03:00:49.865Z,25.77
2023-01-19T03:03:32.279Z,24.15
2023-01-19T03:06:36.365Z,23.00
2023-01-19T03:09:11.087Z,25.70
2023-01-19T03:11:42.330Z,20.63
2023-01-19T03:14:19.879Z,23.83
2023-01-19T03:16:49.676Z,25.52
2023-01-19T03:19:27.160Z,21.80
2023-01-19T03:21:59.523Z,22.17
2023-01-19T03:24:30.760Z,23.52
2023-01-19T03:27:06.725Z,23.73
2023-01-19T03:29:34.847Z,19.70
2023-01-19T03:32:06.142Z,22.92
2023-01-19T03:34:34.631Z,20.05
2023-01-19T03:37:04.593Z,23.70
2023-01-19T03:39:31.863Z,22.17
2023-01-19T03:42:09.255Z,23.52
2023-01-19T03:44:38.565Z,23.58
2023-01-19T03:47:07.200Z,22.92
2023-01-19T03:49:36.127Z,24.15
2023-01-19T03:52:02.673Z,24.48
2023-01-19T03:54:29.567Z,22.98
2023-01-19T03:56:56.153Z,23.10
2023-01-19T03:59:22.802Z,23.63
2023-01-19T04:01:49.592Z,25.52
2023-01-19T04:04:16.547Z,21.90
2023-01-19T04:06:43.995Z,24.60
2023-01-19T04:09:10.662Z,22.88
2023-01-19T04:11:37.311Z,20.42
2023-01-19T04:14:04.203Z,24.92
2023-01-19T04:16:30.734Z,24.00
2023-01-19T04:18:57.259Z,22.67
2023-01-19T04:21:23.864Z,20.77
2023-01-19T04:23:50.407Z,21.25
2023-01-19T04:26:17.007Z,21.33
2023-01-19T04:28:43.637Z,20.52
2023-01-19T04:31:10.594Z,23.00
2023-01-19T04:33:37.342Z,21.50
2023-01-19T04:36:04.270Z,26.60
2023-01-19T04:38:30.869Z,22.88
2023-01-19T04:40:57.466Z,25.10
2023-01-19T04:43:24.537Z,25.80
2023-01-19T04:45:51.862Z,22.15
2023-01-19T04:48:19.428Z,22.13
2023-01-19T04:50:46.553Z,22.33
2023-01-19T04:53:13.986Z,24.95
2023-01-19T04:55:40.854Z,23.98
2023-01-19T04:58:07.479Z,22.23
2023-01-19T05:00:34.195Z,25.40
2023-01-19T05:03:01.656Z,23.85
2023-01-19T05:05:28.733Z,24.73
2023-01-19T05:07:55.462Z,21.95
2023-01-19T05:10:22.166Z,27.73
2023-01-19T05:12:48.759Z,24.60
2023-01-19T05:15:15.449Z,30.13
2023-01-19T05:17:42.367Z,27.50
2023-01-19T05:20:11.298Z,24.92
2023-01-19T05:22:39.119Z,27.55
2023-01-19T05:25:09.249Z,27.75
2023-01-19T05:27:37.191Z,26.85
2023-01-19T05:30:05.408Z,26.95
2023-01-19T05:32:32.113Z,25.42
2023-01-19T05:34:58.881Z,28.42
2023-01-19T05:37:25.642Z,23.83
2023-01-19T05:39:52.644Z,29.85
2023-01-19T05:42:19.250Z,30.42
2023-01-19T05:44:45.843Z,27.83
2023-01-19T05:47:12.424Z,27.75
2023-01-19T05:49:38.951Z,24.60
2023-01-19T05:52:05.494Z,28.92
2023-01-19T05:54:32.102Z,27.67
2023-01-19T05:56:58.619Z,27.60
2023-01-19T05:59:25.347Z,24.85
2023-01-19T06:01:52.919Z,25.95
2023-01-19T06:04:20.184Z,27.15
2023-01-19T06:06:50.309Z,26.48
2023-01-19T06:09:17.253Z,28.95
2023-01-19T06:11:44.684Z,29.45
2023-01-19T06:14:11.631Z,27.40
2023-01-19T06:16:38.585Z,25.08
2023-01-19T06:19:05.278Z,26.55
2023-01-19T06:21:32.252Z,27.15
2023-01-19T06:23:58.895Z,26.00
2023-01-19T06:26:26.192Z,25.48
2023-01-19T06:28:52.996Z,21.10
2023-01-19T06:31:19.677Z,24.17
2023-01-19T06:33:46.411Z,21.67
2023-01-19T06:36:13.076Z,19.35
2023-01-19T06:38:40.199Z,21.50
2023-01-19T06:41:06.892Z,22.52
2023-01-19T06:43:33.546Z,20.17
2023-01-19T06:46:03.385Z,18.80
2023-01-19T06:48:30.098Z,20.88
2023-01-19T06:50:58.763Z,20.08
2023-01-19T06:53:27.827Z,24.27
2023-01-19T06:55:58.102Z,17.35
2023-01-19T06:58:25.225Z,22.48
2023-01-19T07:00:52.185Z,26.02
2023-01-19T07:03:21.982Z,19.67
2023-01-19T07:05:52.771Z,23.40
2023-01-19T07:08:19.590Z,21.85
2023-01-19T07:11:24.948Z,23.67
2023-01-19T07:13:33.638Z,23.00
2023-01-19T07:16:08.653Z,20.92
2023-01-19T07:18:36.330Z,23.05
2023-01-19T07:21:04.110Z,25.50
2023-01-19T07:23:30.928Z,22.55
2023-01-19T07:25:58.764Z,23.30
2023-01-19T07:28:25.457Z,29.17
2023-01-19T07:30:53.397Z,22.30
2023-01-19T07:33:22.001Z,24.35
2023-01-19T07:35:49.433Z,22.83
2023-01-19T07:38:17.928Z,25.40
2023-01-19T07:40:46.906Z,23.67
2023-01-19T07:43:14.213Z,25.33
2023-01-19T07:45:40.927Z,22.52
2023-01-19T07:48:07.669Z,23.33
2023-01-19T07:50:34.275Z,24.90
2023-01-19T07:53:08.614Z,25.90
2023-01-19T07:55:35.949Z,22.60
2023-01-19T07:58:06.415Z,22.08
2023-01-19T08:00:35.115Z,25.38
2023-01-19T08:03:03.151Z,23.77
2023-01-19T08:05:30.020Z,22.38
2023-01-19T08:07:57.773Z,23.40
2023-01-19T08:10:26.578Z,23.38
2023-01-19T08:12:57.595Z,22.60
2023-01-19T08:15:25.157Z,19.38
2023-01-19T08:18:00.127Z,19.95
2023-01-19T08:20:28.714Z,23.70
2023-01-19T08:22:59.933Z,20.13
2023-01-19T08:25:34.905Z,20.02
2023-01-19T08:28:03.456Z,21.60
2023-01-19T08:30:30.294Z,21.27
2023-01-19T08:33:03.905Z,18.98
2023-01-19T08:35:31.508Z,20.83
2023-01-19T08:38:01.121Z,24.88
2023-01-19T08:40:29.661Z,20.55
2023-01-19T08:43:08.179Z,19.17
2023-01-19T08:45:36.206Z,20.02
2023-01-19T08:48:04.099Z,21.17
2023-01-19T08:50:32.508Z,23.83
2023-01-19T08:53:00.961Z,17.95
2023-01-19T08:55:29.322Z,21.17
2023-01-19T08:57:57.879Z,19.23
2023-01-19T09:00:25.367Z,19.77
2023-01-19T09:02:52.098Z,18.73
2023-01-19T09:05:18.897Z,21.95
2023-01-19T09:07:47.868Z,16.95
2023-01-19T09:10:16.004Z,18.67
2023-01-19T09:12:43.791Z,14.35
2023-01-19T09:15:12.208Z,17.90
2023-01-19T09:17:38.833Z,20.33
2023-01-19T09:20:06.047Z,18.48
2023-01-19T09:22:33.292Z,17.00
2023-01-19T09:25:00.205Z,18.38
2023-01-19T09:27:26.898Z,20.02
2023-01-19T09:29:53.947Z,19.23
2023-01-19T09:32:21.659Z,18.00
2023-01-19T09:34:48.953Z,18.55
2023-01-19T09:37:16.191Z,19.35
2023-01-19T09:39:42.888Z,19.67
2023-01-19T09:42:29.157Z,21.30
2023-01-19T09:44:55.906Z,18.70
2023-01-19T09:47:28.097Z,17.83
2023-01-19T09:50:04.229Z,16.95
2023-01-19T09:52:35.808Z,17.95
2023-01-19T09:55:02.412Z,16.02
2023-01-19T09:57:30.151Z,17.38
2023-01-19T09:59:59.656Z,14.73
2023-01-19T10:02:37.596Z,18.08
2023-01-19T10:05:22.603Z,14.80
2023-01-19T10:08:08.546Z,17.65
2023-01-19T10:10:37.485Z,17.60
2023-01-19T10:13:32.614Z,18.08
2023-01-19T10:16:39.544Z,16.00
2023-01-19T10:19:29.241Z,15.82
2023-01-19T10:22:00.148Z,15.77
2023-01-19T10:24:40.144Z,17.95
2023-01-19T10:27:20.829Z,19.02
2023-01-19T10:29:47.679Z,15.48
2023-01-19T10:32:17.963Z,16.20
2023-01-19T10:34:44.632Z,15.25
2023-01-19T10:37:18.486Z,14.07
2023-01-19T10:39:54.855Z,13.95
2023-01-19T10:42:21.554Z,14.95
2023-01-19T10:44:49.512Z,15.65
2023-01-19T10:47:19.161Z,14.88
2023-01-19T10:49:47.517Z,16.63
2023-01-19T10:52:42.039Z,15.35
2023-01-19T10:55:26.136Z,14.30
2023-01-19T10:57:53.600Z,15.05
2023-01-19T11:00:39.653Z,16.77
2023-01-19T11:03:30.460Z,18.42
2023-01-19T11:06:24.840Z,18.92
2023-01-19T11:08:52.941Z,18.15
2023-01-19T11:11:21.386Z,16.35
2023-01-19T11:14:06.876Z,16.55
2023-01-19T11:19:03.124Z,17.73
2023-01-19T11:21:31.894Z,18.65
2023-01-19T11:24:01.849Z,19.25
2023-01-19T11:26:44.818Z,18.33
2023-01-19T11:29:29.843Z,16.63
2023-01-19T11:32:19.019Z,18.25
2023-01-19T11:34:45.690Z,18.75
2023-01-19T11:37:18.406Z,16.27
2023-01-19T11:39:53.478Z,19.13
2023-01-19T11:45:02.596Z,19.77
2023-01-19T11:47:49.561Z,21.77
2023-01-19T11:50:33.323Z,20.52
2023-01-19T11:53:06.866Z,19.40
2023-01-19T11:55:52.301Z,18.55
2023-01-19T12:00:51.558Z,21.05
2023-01-19T12:03:25.261Z,21.98
2023-01-19T12:05:59.030Z,18.90
2023-01-19T12:08:56.225Z,18.95
2023-01-19T12:11:31.517Z,17.70
2023-01-19T12:13:59.942Z,17.73
2023-01-19T12:16:32.834Z,16.42
2023-01-19T12:19:14.686Z,17.15
2023-01-19T12:21:41.706Z,19.85
2023-01-19T12:24:36.385Z,21.20
2023-01-19T12:27:17.956Z,18.55
2023-01-19T12:29:46.224Z,19.20
2023-01-19T12:32:19.120Z,20.23
2023-01-19T12:34:48.225Z,20.38
2023-01-19T12:37:35.938Z,20.15
2023-01-19T12:40:21.985Z,17.13
2023-01-19T12:42:55.347Z,17.23
2023-01-19T12:45:25.779Z,21.20
2023-01-19T12:47:56.184Z,20.42
2023-01-19T12:50:25.826Z,17.90
2023-01-19T12:52:57.823Z,18.35
2023-01-19T12:55:30.862Z,18.00
2023-01-19T12:58:00.550Z,17.73
2023-01-19T13:00:33.240Z,19.98
2023-01-19T13:03:24.412Z,20.25
2023-01-19T13:05:53.173Z,19.60
2023-01-19T13:08:22.585Z,19.52
2023-01-19T13:11:10.466Z,18.08
2023-01-19T13:14:03.049Z,17.95
2023-01-19T13:16:29.846Z,18.75
2023-01-19T13:19:01.609Z,17.73
2023-01-19T13:21:32.806Z,17.13
2023-01-19T13:24:08.497Z,20.85
2023-01-19T13:26:40.752Z,17.13
2023-01-19T13:29:32.949Z,18.98
2023-01-19T13:32:04.286Z,22.02
2023-01-19T13:34:43.680Z,18.02
2023-01-19T13:37:20.171Z,16.75
2023-01-19T13:39:50.031Z,21.65
2023-01-19T13:42:36.159Z,18.15
2023-01-19T13:45:26.895Z,17.88
2023-01-19T13:47:56.600Z,21.20
2023-01-19T13:50:42.606Z,20.00
2023-01-19T13:53:21.272Z,20.90
2023-01-19T13:55:48.053Z,19.88
2023-01-19T13:58:22.382Z,21.98
2023-01-19T14:00:49.136Z,18.85
2023-01-19T14:03:21.457Z,21.88
2023-01-19T14:05:53.978Z,20.95
2023-01-19T14:08:22.079Z,21.10
2023-01-19T14:10:56.129Z,22.95
2023-01-19T14:13:25.641Z,25.70
2023-01-19T14:15:55.361Z,21.30
2023-01-19T14:18:26.253Z,19.08
2023-01-19T14:21:07.749Z,20.58
2023-01-19T14:23:49.276Z,21.20
2023-01-19T14:26:38.152Z,19.48
2023-01-19T14:29:31.835Z,22.17
2023-01-19T14:32:15.917Z,22.73
2023-01-19T14:34:53.905Z,27.67
2023-01-19T14:37:29.286Z,22.75
2023-01-19T14:40:00.655Z,22.40
2023-01-19T14:42:53.597Z,24.60
2023-01-19T14:45:28.227Z,22.80
2023-01-19T14:48:07.381Z,25.98
2023-01-19T14:50:41.477Z,25.67
2023-01-19T14:53:28.355Z,23.80
2023-01-19T14:55:59.174Z,26.25
2023-01-19T14:58:27.494Z,23.08
2023-01-19T15:00:57.082Z,29.00
2023-01-19T15:03:38.580Z,38.08
2023-01-19T15:06:18.598Z,28.35
2023-01-19T15:08:46.083Z,25.55
2023-01-19T15:11:26.391Z,22.60
2023-01-19T15:13:53.157Z,25.10
2023-01-19T15:16:20.236Z,25.98
2023-01-19T15:18:46.936Z,24.92
2023-01-19T15:21:23.567Z,20.15
2023-01-19T15:23:50.425Z,23.83
2023-01-19T15:26:20.592Z,27.88
2023-01-19T15:28:51.198Z,22.17
2023-01-19T15:31:23.356Z,24.80
2023-01-19T15:33:50.299Z,23.40
2023-01-19T15:36:19.745Z,22.80
2023-01-19T15:38:47.160Z,20.63
2023-01-19T15:41:29.728Z,21.30
2023-01-19T15:43:56.877Z,21.48
2023-01-19T15:46:25.621Z,20.70
2023-01-19T15:48:53.254Z,24.42
2023-01-19T15:51:22.703Z,24.33
2023-01-19T15:53:49.832Z,21.75
2023-01-19T15:56:19.202Z,24.00
2023-01-19T15:58:46.053Z,22.88
2023-01-19T16:01:14.527Z,21.08
2023-01-19T16:03:41.707Z,22.85
2023-01-19T16:06:09.015Z,24.48
2023-01-19T16:08:36.457Z,23.45
2023-01-19T16:11:05.173Z,31.75
2023-01-19T16:13:32.302Z,25.17
2023-01-19T16:16:03.312Z,27.20
2023-01-19T16:18:30.148Z,27.25
2023-01-19T16:20:56.780Z,23.23
2023-01-19T16:23:23.292Z,22.95
2023-01-19T16:26:04.887Z,21.10
2023-01-19T16:28:31.740Z,25.58
2023-01-19T16:30:58.305Z,25.45
2023-01-19T16:33:25.028Z,28.02
2023-01-19T16:35:52.329Z,27.85
2023-01-19T16:38:19.230Z,22.50
2023-01-19T16:40:46.487Z,26.45
2023-01-19T16:43:15.112Z,28.60
2023-01-19T16:46:16.593Z,29.42
2023-01-19T16:48:43.229Z,23.45
2023-01-19T16:51:09.763Z,22.98
2023-01-19T16:53:36.842Z,28.73
2023-01-19T16:56:10.936Z,23.00
2023-01-19T16:58:38.302Z,26.02
2023-01-19T17:05:24.111Z,23.42
2023-01-19T17:07:50.768Z,23.70
2023-01-19T17:10:17.462Z,28.90
2023-01-19T17:12:44.058Z,22.85
2023-01-19T17:15:10.966Z,22.52
2023-01-19T17:17:37.875Z,27.30
2023-01-19T17:20:04.926Z,22.90
2023-01-19T17:22:31.531Z,24.75
2023-01-19T17:24:58.139Z,26.77
2023-01-19T17:27:24.759Z,23.38
2023-01-19T17:29:51.720Z,27.67
2023-01-19T17:32:18.480Z,24.83
2023-01-19T17:34:46.614Z,30.80
2023-01-19T17:37:13.272Z,23.00
2023-01-19T17:39:40.047Z,24.10
2023-01-19T17:42:06.557Z,26.98
2023-01-19T17:44:33.158Z,26.65
2023-01-19T17:47:00.115Z,29.35
2023-01-19T17:49:26.808Z,25.02
2023-01-19T17:51:54.844Z,26.02
2023-01-19T17:54:22.054Z,27.20
2023-01-19T17:56:50.828Z,26.15
2023-01-19T17:59:17.559Z,23.63
2023-01-19T18:01:45.515Z,25.08
2023-01-19T18:04:12.169Z,24.85
2023-01-19T18:06:39.325Z,23.92
2023-01-19T18:09:07.304Z,24.15
2023-01-19T18:11:34.818Z,132.57
2023-01-19T18:14:02.107Z,42.78
2023-01-19T18:16:29.905Z,51.95
2023-01-19T18:18:57.444Z,34.65
2023-01-19T18:21:27.946Z,39.70
2023-01-19T18:24:01.420Z,37.60
2023-01-19T18:26:28.805Z,36.55
2023-01-19T18:28:56.877Z,33.78
2023-01-19T18:31:24.129Z,35.40
2023-01-19T18:33:50.809Z,26.92
2023-01-19T18:36:18.080Z,24.25
2023-01-19T18:38:45.226Z,27.90
2023-01-19T18:41:14.664Z,26.48
2023-01-19T18:43:41.463Z,27.50
2023-01-19T18:46:08.761Z,28.05
2023-01-19T18:48:38.324Z,29.10
2023-01-19T18:51:10.017Z,33.72
2023-01-19T18:53:38.020Z,35.15
2023-01-19T18:56:05.440Z,32.03
2023-01-19T18:58:33.259Z,30.75
2023-01-19T19:01:00.964Z,25.15
2023-01-19T19:03:28.425Z,30.27
2023-01-19T19:05:55.334Z,28.25
2023-01-19T19:08:22.232Z,30.85
2023-01-19T19:10:48.837Z,28.02
2023-01-19T19:13:17.146Z,27.40
2023-01-19T19:15:46.537Z,29.08
2023-01-19T19:18:13.824Z,28.65
2023-01-19T19:20:41.962Z,28.83
2023-01-19T19:23:09.578Z,29.05
2023-01-19T19:25:37.004Z,31.33
2023-01-19T19:28:04.042Z,29.15
2023-01-19T19:30:34.240Z,30.95
2023-01-19T19:33:01.050Z,32.28
2023-01-19T19:35:28.192Z,28.90
2023-01-19T19:37:57.486Z,30.77
2023-01-19T19:40:28.040Z,25.42
2023-01-19T19:42:56.991Z,26.45
2023-01-19T19:45:25.182Z,33.45
2023-01-19T19:47:51.788Z,27.70
2023-01-19T19:50:18.625Z,28.75
2023-01-19T19:52:45.328Z,31.60
2023-01-19T19:55:12.526Z,30.33
2023-01-19T19:57:39.333Z,32.83
2023-01-19T20:00:06.972Z,28.67
2023-01-19T20:02:33.552Z,29.95
2023-01-19T20:05:00.103Z,28.75
2023-01-19T20:07:26.728Z,33.17
2023-01-19T20:09:54.958Z,39.85
2023-01-19T20:12:21.617Z,37.95
2023-01-19T20:14:48.537Z,31.77
2023-01-19T20:17:15.157Z,33.30
2023-01-19T20:19:41.894Z,34.97
2023-01-19T20:22:08.554Z,35.47
2023-01-19T20:24:35.123Z,40.08
2023-01-19T20:27:01.728Z,32.65
2023-01-19T20:29:28.334Z,36.15
2023-01-19T20:31:56.157Z,29.80
2023-01-19T20:34:25.749Z,29.33
2023-01-19T20:36:53.771Z,30.60
2023-01-19T20:39:22.118Z,33.45
2023-01-19T20:41:51.069Z,35.15
2023-01-19T20:44:23.582Z,30.85
2023-01-19T20:46:51.057Z,32.63
2023-01-19T20:49:19.142Z,31.25
2023-01-19T20:51:46.950Z,32.88
2023-01-19T20:54:16.168Z,31.15
2023-01-19T20:56:42.939Z,33.38
2023-01-19T20:59:10.571Z,32.00
2023-01-19T21:01:38.324Z,33.55
2023-01-19T21:04:05.183Z,35.35
2023-01-19T21:06:31.918Z,30.40
2023-01-19T21:08:58.593Z,32.28
2023-01-19T21:11:26.023Z,28.88
2023-01-19T21:13:55.909Z,31.02
2023-01-19T21:16:25.412Z,35.03
2023-01-19T21:18:52.659Z,25.90
2023-01-19T21:21:29.898Z,35.60
2023-01-19T21:23:59.248Z,35.35
2023-01-19T21:26:26.176Z,39.92
2023-01-19T21:28:53.466Z,33.85
2023-01-19T21:31:22.445Z,30.83
2023-01-19T21:33:53.125Z,36.42
2023-01-19T21:36:21.106Z,34.78
2023-01-19T21:38:48.154Z,36.80
2023-01-19T21:41:16.221Z,39.85
2023-01-19T21:43:43.092Z,35.85
2023-01-19T21:46:14.313Z,33.72
2023-01-19T21:48:42.119Z,37.22
2023-01-19T21:51:09.085Z,37.08
2023-01-19T21:53:35.711Z,39.55
2023-01-19T21:56:02.297Z,43.33
2023-01-19T21:58:28.911Z,33.70
2023-01-19T22:01:04.596Z,37.78
2023-01-19T22:03:31.286Z,37.60
2023-01-19T22:06:07.193Z,40.08
2023-01-19T22:08:34.278Z,40.50
2023-01-19T22:11:08.981Z,46.53
2023-01-19T22:13:38.371Z,44.63
2023-01-19T22:16:08.731Z,44.78
2023-01-19T22:18:36.573Z,51.60
2023-01-19T22:21:11.345Z,51.40
2023-01-19T22:23:38.573Z,49.63
2023-01-19T22:26:06.094Z,46.60
2023-01-19T22:28:32.748Z,46.05
2023-01-19T22:31:14.186Z,47.05
2023-01-19T22:33:40.960Z,43.63
2023-01-19T22:36:13.193Z,49.63
2023-01-19T22:38:40.987Z,41.08
2023-01-19T22:41:19.245Z,37.90
2023-01-19T22:43:46.538Z,54.80
2023-01-19T22:46:13.397Z,46.38
2023-01-19T22:48:40.479Z,49.20
2023-01-19T22:51:07.500Z,45.72
2023-01-19T22:53:34.176Z,41.28
2023-01-19T22:56:08.552Z,48.50
2023-01-19T22:58:35.078Z,47.53
2023-01-19T23:01:09.284Z,41.97
2023-01-19T23:03:37.140Z,44.63
2023-01-19T23:06:12.923Z,46.85
2023-01-19T23:08:40.319Z,39.67
2023-01-19T23:11:18.939Z,42.28
2023-01-19T23:13:46.248Z,49.95
2023-01-19T23:16:13.009Z,39.70
2023-01-19T23:18:40.755Z,46.35
2023-01-19T23:21:16.506Z,48.35
2023-01-19T23:23:43.689Z,44.92
2023-01-19T23:26:12.887Z,44.35
2023-01-19T23:28:40.412Z,42.30
2023-01-19T23:31:13.171Z,45.42
2023-01-19T23:33:41.429Z,35.03
2023-01-19T23:36:08.467Z,41.38
2023-01-19T23:38:35.004Z,36.47
2023-01-19T23:41:01.547Z,38.17
2023-01-19T23:43:28.066Z,41.10
2023-01-19T23:45:55.038Z,39.38
2023-01-19T23:48:21.904Z,34.38
2023-01-19T23:50:48.545Z,41.85
2023-01-19T23:53:15.113Z,37.10
2023-01-19T23:55:41.858Z,38.35
2023-01-19T23:58:08.372Z,41.42
